sensor_id;sensor_type;location;lat;lon;timestamp;P1;durP1;ratioP1;P2;durP2;ratioP2
69837;SDS011;57135;51.992;4.476;2023-01-15T00:00:46;10.47;;;6.58;;
69837;SDS011;57135;51.992;4.476;2023-01-15T00:03:11;9.11;;;5.65;;
69837;SDS011;57135;51.992;4.476;2023-01-15T00:05:36;10.06;;;6.22;;
69837;SDS011;57135;51.992;4.476;2023-01-15T00:08:02;8.60;;;5.46;;
69837;SDS011;57135;51.992;4.476;2023-01-15T00:10:28;8.56;;;5.44;;
69837;SDS011;57135;51.992;4.476;2023-01-15T00:12:53;8.56;;;5.38;;
69837;SDS011;57135;51.992;4.476;2023-01-15T00:15:18;8.60;;;5.30;;
69837;SDS011;57135;51.992;4.476;2023-01-15T00:17:44;9.39;;;5.78;;
69837;SDS011;57135;51.992;4.476;2023-01-15T00:20:09;8.53;;;5.35;;
69837;SDS011;57135;51.992;4.476;2023-01-15T00:22:36;9.09;;;5.68;;
69837;SDS011;57135;51.992;4.476;2023-01-15T00:25:01;9.15;;;5.65;;
69837;SDS011;57135;51.992;4.476;2023-01-15T00:27:46;9.32;;;5.85;;
69837;SDS011;57135;51.992;4.476;2023-01-15T00:30:12;8.74;;;5.52;;
69837;SDS011;57135;51.992;4.476;2023-01-15T00:32:39;8.83;;;5.57;;
69837;SDS011;57135;51.992;4.476;2023-01-15T00:35:06;9.42;;;5.81;;
69837;SDS011;57135;51.992;4.476;2023-01-15T00:37:31;8.84;;;5.48;;
69837;SDS011;57135;51.992;4.476;2023-01-15T00:39:57;8.99;;;5.60;;
69837;SDS011;57135;51.992;4.476;2023-01-15T00:42:22;9.13;;;5.71;;
69837;SDS011;57135;51.992;4.476;2023-01-15T00:44:48;8.70;;;5.40;;
69837;SDS011;57135;51.992;4.476;2023-01-15T00:47:13;8.61;;;5.28;;
69837;SDS011;57135;51.992;4.476;2023-01-15T00:49:40;9.33;;;5.73;;
69837;SDS011;57135;51.992;4.476;2023-01-15T00:52:06;8.50;;;5.27;;
69837;SDS011;57135;51.992;4.476;2023-01-15T00:54:31;8.69;;;5.44;;
69837;SDS011;57135;51.992;4.476;2023-01-15T00:56:59;7.85;;;4.92;;
69837;SDS011;57135;51.992;4.476;2023-01-15T00:59:25;8.06;;;4.99;;
69837;SDS011;57135;51.992;4.476;2023-01-15T01:01:50;8.81;;;5.52;;
69837;SDS011;57135;51.992;4.476;2023-01-15T01:04:16;8.69;;;5.47;;
69837;SDS011;57135;51.992;4.476;2023-01-15T01:06:41;8.79;;;5.48;;
69837;SDS011;57135;51.992;4.476;2023-01-15T01:09:06;9.41;;;5.81;;
69837;SDS011;57135;51.992;4.476;2023-01-15T01:11:32;9.20;;;5.64;;
69837;SDS011;57135;51.992;4.476;2023-01-15T01:13:59;9.12;;;5.62;;
69837;SDS011;57135;51.992;4.476;2023-01-15T01:16:32;8.80;;;5.46;;
69837;SDS011;57135;51.992;4.476;2023-01-15T01:19:00;9.33;;;5.73;;
69837;SDS011;57135;51.992;4.476;2023-01-15T01:21:28;9.61;;;5.85;;
69837;SDS011;57135;51.992;4.476;2023-01-15T01:23:57;9.36;;;5.74;;
69837;SDS011;57135;51.992;4.476;2023-01-15T01:26:23;9.27;;;5.64;;
69837;SDS011;57135;51.992;4.476;2023-01-15T01:28:49;9.81;;;5.94;;
69837;SDS011;57135;51.992;4.476;2023-01-15T01:31:16;9.30;;;5.62;;
69837;SDS011;57135;51.992;4.476;2023-01-15T01:33:42;10.06;;;6.16;;
69837;SDS011;57135;51.992;4.476;2023-01-15T01:36:08;9.30;;;5.69;;
69837;SDS011;57135;51.992;4.476;2023-01-15T01:38:34;8.74;;;5.37;;
69837;SDS011;57135;51.992;4.476;2023-01-15T01:40:59;8.00;;;4.94;;
69837;SDS011;57135;51.992;4.476;2023-01-15T01:43:26;9.06;;;5.56;;
69837;SDS011;57135;51.992;4.476;2023-01-15T01:45:53;8.90;;;5.41;;
69837;SDS011;57135;51.992;4.476;2023-01-15T01:48:29;9.17;;;5.54;;
69837;SDS011;57135;51.992;4.476;2023-01-15T01:50:58;9.50;;;5.80;;
69837;SDS011;57135;51.992;4.476;2023-01-15T01:53:27;8.00;;;4.96;;
69837;SDS011;57135;51.992;4.476;2023-01-15T01:55:55;8.24;;;5.12;;
69837;SDS011;57135;51.992;4.476;2023-01-15T01:58:22;7.72;;;4.74;;
69837;SDS011;57135;51.992;4.476;2023-01-15T02:00:53;8.15;;;4.99;;
69837;SDS011;57135;51.992;4.476;2023-01-15T02:03:19;7.88;;;4.84;;
69837;SDS011;57135;51.992;4.476;2023-01-15T02:05:54;8.12;;;4.98;;
69837;SDS011;57135;51.992;4.476;2023-01-15T02:08:22;8.07;;;4.91;;
69837;SDS011;57135;51.992;4.476;2023-01-15T02:10:49;9.06;;;5.44;;
69837;SDS011;57135;51.992;4.476;2023-01-15T02:13:26;8.88;;;5.38;;
69837;SDS011;57135;51.992;4.476;2023-01-15T02:19:10;8.90;;;5.43;;
69837;SDS011;57135;51.992;4.476;2023-01-15T02:24:30;9.21;;;5.56;;
69837;SDS011;57135;51.992;4.476;2023-01-15T02:27:21;8.76;;;5.28;;
69837;SDS011;57135;51.992;4.476;2023-01-15T02:29:50;9.08;;;5.53;;
69837;SDS011;57135;51.992;4.476;2023-01-15T02:32:41;8.50;;;5.24;;
69837;SDS011;57135;51.992;4.476;2023-01-15T02:35:24;8.04;;;4.94;;
69837;SDS011;57135;51.992;4.476;2023-01-15T02:37:56;8.36;;;5.18;;
69837;SDS011;57135;51.992;4.476;2023-01-15T02:40:25;8.28;;;5.10;;
69837;SDS011;57135;51.992;4.476;2023-01-15T02:42:52;9.06;;;5.54;;
69837;SDS011;57135;51.992;4.476;2023-01-15T02:45:21;9.19;;;5.63;;
69837;SDS011;57135;51.992;4.476;2023-01-15T02:47:54;9.22;;;5.65;;
69837;SDS011;57135;51.992;4.476;2023-01-15T02:50:31;10.65;;;6.50;;
69837;SDS011;57135;51.992;4.476;2023-01-15T02:53:03;10.14;;;6.15;;
69837;SDS011;57135;51.992;4.476;2023-01-15T02:55:34;8.89;;;5.45;;
69837;SDS011;57135;51.992;4.476;2023-01-15T02:58:04;8.16;;;5.01;;
69837;SDS011;57135;51.992;4.476;2023-01-15T03:00:37;8.42;;;5.21;;
69837;SDS011;57135;51.992;4.476;2023-01-15T03:03:24;7.83;;;4.84;;
69837;SDS011;57135;51.992;4.476;2023-01-15T03:06:18;7.18;;;4.43;;
69837;SDS011;57135;51.992;4.476;2023-01-15T03:08:51;7.62;;;4.73;;
69837;SDS011;57135;51.992;4.476;2023-01-15T03:11:17;7.10;;;4.44;;
69837;SDS011;57135;51.992;4.476;2023-01-15T03:13:46;8.12;;;5.03;;
69837;SDS011;57135;51.992;4.476;2023-01-15T03:16:30;8.85;;;5.44;;
69837;SDS011;57135;51.992;4.476;2023-01-15T03:21:58;7.35;;;4.60;;
69837;SDS011;57135;51.992;4.476;2023-01-15T03:24:31;8.23;;;5.10;;
69837;SDS011;57135;51.992;4.476;2023-01-15T03:27:04;7.95;;;5.00;;
69837;SDS011;57135;51.992;4.476;2023-01-15T03:29:37;7.64;;;4.78;;
69837;SDS011;57135;51.992;4.476;2023-01-15T03:32:05;8.33;;;5.14;;
69837;SDS011;57135;51.992;4.476;2023-01-15T03:34:44;8.74;;;5.32;;
69837;SDS011;57135;51.992;4.476;2023-01-15T03:37:12;9.14;;;5.57;;
69837;SDS011;57135;51.992;4.476;2023-01-15T03:39:39;8.77;;;5.40;;
69837;SDS011;57135;51.992;4.476;2023-01-15T03:44:52;9.03;;;5.52;;
69837;SDS011;57135;51.992;4.476;2023-01-15T03:47:44;8.18;;;5.09;;
69837;SDS011;57135;51.992;4.476;2023-01-15T03:50:48;7.48;;;4.71;;
69837;SDS011;57135;51.992;4.476;2023-01-15T03:53:19;8.82;;;5.38;;
69837;SDS011;57135;51.992;4.476;2023-01-15T03:56:03;9.18;;;5.58;;
69837;SDS011;57135;51.992;4.476;2023-01-15T03:58:38;9.29;;;5.65;;
69837;SDS011;57135;51.992;4.476;2023-01-15T04:01:13;8.88;;;5.46;;
69837;SDS011;57135;51.992;4.476;2023-01-15T04:03:42;7.84;;;4.88;;
69837;SDS011;57135;51.992;4.476;2023-01-15T04:06:10;7.79;;;4.84;;
69837;SDS011;57135;51.992;4.476;2023-01-15T04:08:39;8.36;;;5.17;;
69837;SDS011;57135;51.992;4.476;2023-01-15T04:11:07;9.26;;;5.72;;
69837;SDS011;57135;51.992;4.476;2023-01-15T04:13:32;8.65;;;5.32;;
69837;SDS011;57135;51.992;4.476;2023-01-15T04:15:58;8.15;;;5.02;;
69837;SDS011;57135;51.992;4.476;2023-01-15T04:18:24;7.39;;;4.57;;
69837;SDS011;57135;51.992;4.476;2023-01-15T04:20:49;8.42;;;5.20;;
69837;SDS011;57135;51.992;4.476;2023-01-15T04:23:15;8.66;;;5.40;;
69837;SDS011;57135;51.992;4.476;2023-01-15T04:25:40;8.36;;;5.30;;
69837;SDS011;57135;51.992;4.476;2023-01-15T04:28:06;7.51;;;4.73;;
69837;SDS011;57135;51.992;4.476;2023-01-15T04:30:33;7.90;;;4.96;;
69837;SDS011;57135;51.992;4.476;2023-01-15T04:32:59;8.35;;;5.15;;
69837;SDS011;57135;51.992;4.476;2023-01-15T04:35:24;7.85;;;4.88;;
69837;SDS011;57135;51.992;4.476;2023-01-15T04:37:54;7.63;;;4.72;;
69837;SDS011;57135;51.992;4.476;2023-01-15T04:40:20;7.09;;;4.42;;
69837;SDS011;57135;51.992;4.476;2023-01-15T04:43:11;7.68;;;4.86;;
69837;SDS011;57135;51.992;4.476;2023-01-15T04:45:56;7.47;;;4.63;;
69837;SDS011;57135;51.992;4.476;2023-01-15T04:48:23;7.54;;;4.68;;
69837;SDS011;57135;51.992;4.476;2023-01-15T04:50:48;8.08;;;5.00;;
69837;SDS011;57135;51.992;4.476;2023-01-15T04:53:17;8.56;;;5.27;;
69837;SDS011;57135;51.992;4.476;2023-01-15T04:55:42;7.75;;;4.77;;
69837;SDS011;57135;51.992;4.476;2023-01-15T04:58:07;7.33;;;4.50;;
69837;SDS011;57135;51.992;4.476;2023-01-15T05:00:33;7.43;;;4.58;;
69837;SDS011;57135;51.992;4.476;2023-01-15T05:02:58;7.37;;;4.52;;
69837;SDS011;57135;51.992;4.476;2023-01-15T05:05:24;6.58;;;4.04;;
69837;SDS011;57135;51.992;4.476;2023-01-15T05:07:49;6.43;;;3.95;;
69837;SDS011;57135;51.992;4.476;2023-01-15T05:10:18;6.39;;;3.94;;
69837;SDS011;57135;51.992;4.476;2023-01-15T05:12:43;5.72;;;3.55;;
69837;SDS011;57135;51.992;4.476;2023-01-15T05:15:09;5.63;;;3.49;;
69837;SDS011;57135;51.992;4.476;2023-01-15T05:17:34;6.54;;;3.99;;
69837;SDS011;57135;51.992;4.476;2023-01-15T05:20:00;7.28;;;4.36;;
69837;SDS011;57135;51.992;4.476;2023-01-15T05:22:25;7.43;;;4.36;;
69837;SDS011;57135;51.992;4.476;2023-01-15T05:24:50;8.05;;;4.73;;
69837;SDS011;57135;51.992;4.476;2023-01-15T05:27:16;7.42;;;4.42;;
69837;SDS011;57135;51.992;4.476;2023-01-15T05:29:41;6.73;;;4.05;;
69837;SDS011;57135;51.992;4.476;2023-01-15T05:32:07;6.86;;;4.20;;
69837;SDS011;57135;51.992;4.476;2023-01-15T05:34:32;6.78;;;4.23;;
69837;SDS011;57135;51.992;4.476;2023-01-15T05:36:58;7.39;;;4.57;;
69837;SDS011;57135;51.992;4.476;2023-01-15T05:39:23;6.80;;;4.21;;
69837;SDS011;57135;51.992;4.476;2023-01-15T05:41:48;6.80;;;4.18;;
69837;SDS011;57135;51.992;4.476;2023-01-15T05:46:47;7.86;;;4.77;;
69837;SDS011;57135;51.992;4.476;2023-01-15T05:49:16;7.95;;;4.79;;
69837;SDS011;57135;51.992;4.476;2023-01-15T05:51:45;7.22;;;4.33;;
69837;SDS011;57135;51.992;4.476;2023-01-15T05:54:13;6.77;;;4.08;;
69837;SDS011;57135;51.992;4.476;2023-01-15T05:56:40;6.01;;;3.64;;
69837;SDS011;57135;51.992;4.476;2023-01-15T05:59:06;6.68;;;4.01;;
69837;SDS011;57135;51.992;4.476;2023-01-15T06:01:33;6.36;;;3.79;;
69837;SDS011;57135;51.992;4.476;2023-01-15T06:04:00;7.22;;;4.31;;
69837;SDS011;57135;51.992;4.476;2023-01-15T06:06:27;7.36;;;4.37;;
69837;SDS011;57135;51.992;4.476;2023-01-15T06:08:52;7.21;;;4.28;;
69837;SDS011;57135;51.992;4.476;2023-01-15T06:11:18;8.08;;;4.78;;
69837;SDS011;57135;51.992;4.476;2023-01-15T06:13:44;8.82;;;5.20;;
69837;SDS011;57135;51.992;4.476;2023-01-15T06:16:09;8.17;;;4.85;;
69837;SDS011;57135;51.992;4.476;2023-01-15T06:18:36;7.64;;;4.55;;
69837;SDS011;57135;51.992;4.476;2023-01-15T06:21:03;7.81;;;4.71;;
69837;SDS011;57135;51.992;4.476;2023-01-15T06:23:30;7.47;;;4.52;;
69837;SDS011;57135;51.992;4.476;2023-01-15T06:25:58;7.48;;;4.52;;
69837;SDS011;57135;51.992;4.476;2023-01-15T06:28:25;8.06;;;4.87;;
69837;SDS011;57135;51.992;4.476;2023-01-15T06:30:51;7.69;;;4.62;;
69837;SDS011;57135;51.992;4.476;2023-01-15T06:33:16;7.49;;;4.48;;
69837;SDS011;57135;51.992;4.476;2023-01-15T06:35:42;7.60;;;4.53;;
69837;SDS011;57135;51.992;4.476;2023-01-15T06:38:07;7.79;;;4.70;;
69837;SDS011;57135;51.992;4.476;2023-01-15T06:40:33;6.91;;;4.18;;
69837;SDS011;57135;51.992;4.476;2023-01-15T06:42:58;7.18;;;4.31;;
69837;SDS011;57135;51.992;4.476;2023-01-15T06:45:42;6.78;;;4.11;;
69837;SDS011;57135;51.992;4.476;2023-01-15T06:48:26;6.99;;;4.24;;
69837;SDS011;57135;51.992;4.476;2023-01-15T06:50:52;6.84;;;4.11;;
69837;SDS011;57135;51.992;4.476;2023-01-15T06:53:19;8.02;;;4.81;;
69837;SDS011;57135;51.992;4.476;2023-01-15T06:55:45;8.11;;;4.84;;
69837;SDS011;57135;51.992;4.476;2023-01-15T06:58:11;8.07;;;4.86;;
69837;SDS011;57135;51.992;4.476;2023-01-15T07:00:36;7.98;;;4.81;;
69837;SDS011;57135;51.992;4.476;2023-01-15T07:03:02;7.55;;;4.56;;
69837;SDS011;57135;51.992;4.476;2023-01-15T07:05:29;7.21;;;4.37;;
69837;SDS011;57135;51.992;4.476;2023-01-15T07:07:54;7.40;;;4.49;;
69837;SDS011;57135;51.992;4.476;2023-01-15T07:10:21;8.40;;;5.09;;
69837;SDS011;57135;51.992;4.476;2023-01-15T07:12:47;7.55;;;4.59;;
69837;SDS011;57135;51.992;4.476;2023-01-15T07:15:13;8.06;;;4.91;;
69837;SDS011;57135;51.992;4.476;2023-01-15T07:17:38;8.45;;;5.13;;
69837;SDS011;57135;51.992;4.476;2023-01-15T07:20:04;8.53;;;5.15;;
69837;SDS011;57135;51.992;4.476;2023-01-15T07:22:30;8.52;;;5.06;;
69837;SDS011;57135;51.992;4.476;2023-01-15T07:24:56;8.82;;;5.29;;
69837;SDS011;57135;51.992;4.476;2023-01-15T07:27:22;9.04;;;5.47;;
69837;SDS011;57135;51.992;4.476;2023-01-15T07:29:48;8.96;;;5.41;;
69837;SDS011;57135;51.992;4.476;2023-01-15T07:32:15;8.18;;;4.88;;
69837;SDS011;57135;51.992;4.476;2023-01-15T07:34:41;8.68;;;5.13;;
69837;SDS011;57135;51.992;4.476;2023-01-15T07:37:06;9.10;;;5.36;;
69837;SDS011;57135;51.992;4.476;2023-01-15T07:39:32;9.64;;;5.65;;
69837;SDS011;57135;51.992;4.476;2023-01-15T07:41:57;9.59;;;5.69;;
69837;SDS011;57135;51.992;4.476;2023-01-15T07:44:42;8.49;;;5.11;;
69837;SDS011;57135;51.992;4.476;2023-01-15T07:47:26;10.10;;;6.03;;
69837;SDS011;57135;51.992;4.476;2023-01-15T07:50:14;9.94;;;5.91;;
69837;SDS011;57135;51.992;4.476;2023-01-15T07:52:46;10.94;;;6.53;;
69837;SDS011;57135;51.992;4.476;2023-01-15T07:55:12;10.02;;;5.99;;
69837;SDS011;57135;51.992;4.476;2023-01-15T07:57:37;9.75;;;5.85;;
69837;SDS011;57135;51.992;4.476;2023-01-15T08:00:05;8.60;;;5.23;;
69837;SDS011;57135;51.992;4.476;2023-01-15T08:02:31;10.46;;;6.35;;
69837;SDS011;57135;51.992;4.476;2023-01-15T08:04:56;10.59;;;6.33;;
69837;SDS011;57135;51.992;4.476;2023-01-15T08:07:22;9.19;;;5.47;;
69837;SDS011;57135;51.992;4.476;2023-01-15T08:09:47;8.93;;;5.36;;
69837;SDS011;57135;51.992;4.476;2023-01-15T08:12:13;9.34;;;5.66;;
69837;SDS011;57135;51.992;4.476;2023-01-15T08:14:57;9.01;;;5.43;;
69837;SDS011;57135;51.992;4.476;2023-01-15T08:17:38;9.23;;;5.45;;
69837;SDS011;57135;51.992;4.476;2023-01-15T08:20:09;10.37;;;6.13;;
69837;SDS011;57135;51.992;4.476;2023-01-15T08:22:56;9.59;;;5.73;;
69837;SDS011;57135;51.992;4.476;2023-01-15T08:25:22;7.89;;;4.79;;
69837;SDS011;57135;51.992;4.476;2023-01-15T08:27:52;8.33;;;5.06;;
69837;SDS011;57135;51.992;4.476;2023-01-15T08:30:20;8.10;;;4.88;;
69837;SDS011;57135;51.992;4.476;2023-01-15T08:32:47;8.45;;;5.06;;
69837;SDS011;57135;51.992;4.476;2023-01-15T08:35:13;8.26;;;4.93;;
69837;SDS011;57135;51.992;4.476;2023-01-15T08:37:39;8.33;;;4.98;;
69837;SDS011;57135;51.992;4.476;2023-01-15T08:40:05;7.79;;;4.62;;
69837;SDS011;57135;51.992;4.476;2023-01-15T08:42:32;8.42;;;5.01;;
69837;SDS011;57135;51.992;4.476;2023-01-15T08:44:58;9.12;;;5.43;;
69837;SDS011;57135;51.992;4.476;2023-01-15T08:47:23;9.34;;;5.55;;
69837;SDS011;57135;51.992;4.476;2023-01-15T08:49:49;8.44;;;5.03;;
69837;SDS011;57135;51.992;4.476;2023-01-15T08:52:14;9.70;;;5.79;;
69837;SDS011;57135;51.992;4.476;2023-01-15T08:54:40;9.67;;;5.72;;
69837;SDS011;57135;51.992;4.476;2023-01-15T08:57:05;10.00;;;5.88;;
69837;SDS011;57135;51.992;4.476;2023-01-15T08:59:33;10.34;;;6.05;;
69837;SDS011;57135;51.992;4.476;2023-01-15T09:01:59;9.96;;;5.84;;
69837;SDS011;57135;51.992;4.476;2023-01-15T09:04:25;9.85;;;5.82;;
69837;SDS011;57135;51.992;4.476;2023-01-15T09:06:50;8.80;;;5.21;;
69837;SDS011;57135;51.992;4.476;2023-01-15T09:09:16;10.11;;;5.95;;
69837;SDS011;57135;51.992;4.476;2023-01-15T09:11:43;10.67;;;6.28;;
69837;SDS011;57135;51.992;4.476;2023-01-15T09:14:09;10.30;;;6.10;;
69837;SDS011;57135;51.992;4.476;2023-01-15T09:16:37;9.78;;;5.84;;
69837;SDS011;57135;51.992;4.476;2023-01-15T09:19:04;10.02;;;5.98;;
69837;SDS011;57135;51.992;4.476;2023-01-15T09:21:30;9.83;;;5.81;;
69837;SDS011;57135;51.992;4.476;2023-01-15T09:23:56;9.06;;;5.45;;
69837;SDS011;57135;51.992;4.476;2023-01-15T09:28:52;8.37;;;5.05;;
69837;SDS011;57135;51.992;4.476;2023-01-15T09:31:18;8.92;;;5.31;;
69837;SDS011;57135;51.992;4.476;2023-01-15T09:33:44;8.86;;;5.25;;
69837;SDS011;57135;51.992;4.476;2023-01-15T09:36:16;9.14;;;5.39;;
69837;SDS011;57135;51.992;4.476;2023-01-15T09:38:54;9.53;;;5.66;;
69837;SDS011;57135;51.992;4.476;2023-01-15T09:41:21;7.73;;;4.62;;
69837;SDS011;57135;51.992;4.476;2023-01-15T09:47:05;8.57;;;5.07;;
69837;SDS011;57135;51.992;4.476;2023-01-15T09:55:12;9.86;;;5.81;;
69837;SDS011;57135;51.992;4.476;2023-01-15T09:57:41;8.47;;;5.03;;
69837;SDS011;57135;51.992;4.476;2023-01-15T10:00:20;8.92;;;5.28;;
69837;SDS011;57135;51.992;4.476;2023-01-15T10:05:34;12.08;;;7.05;;
69837;SDS011;57135;51.992;4.476;2023-01-15T10:10:46;8.59;;;5.10;;
69837;SDS011;57135;51.992;4.476;2023-01-15T10:13:26;9.85;;;5.87;;
69837;SDS011;57135;51.992;4.476;2023-01-15T10:15:58;8.84;;;5.32;;
69837;SDS011;57135;51.992;4.476;2023-01-15T10:18:24;9.23;;;5.54;;
69837;SDS011;57135;51.992;4.476;2023-01-15T10:23:41;8.75;;;5.19;;
69837;SDS011;57135;51.992;4.476;2023-01-15T10:26:27;9.21;;;5.41;;
69837;SDS011;57135;51.992;4.476;2023-01-15T10:28:57;9.33;;;5.50;;
69837;SDS011;57135;51.992;4.476;2023-01-15T10:31:48;9.07;;;5.39;;
69837;SDS011;57135;51.992;4.476;2023-01-15T10:36:54;9.20;;;5.41;;
69837;SDS011;57135;51.992;4.476;2023-01-15T10:39:29;9.75;;;5.75;;
69837;SDS011;57135;51.992;4.476;2023-01-15T10:47:41;8.66;;;5.18;;
69837;SDS011;57135;51.992;4.476;2023-01-15T10:50:20;9.01;;;5.38;;
69837;SDS011;57135;51.992;4.476;2023-01-15T10:52:56;9.09;;;5.38;;
69837;SDS011;57135;51.992;4.476;2023-01-15T11:01:03;10.87;;;6.42;;
69837;SDS011;57135;51.992;4.476;2023-01-15T11:03:35;9.17;;;5.40;;
69837;SDS011;57135;51.992;4.476;2023-01-15T11:06:03;10.13;;;5.96;;
69837;SDS011;57135;51.992;4.476;2023-01-15T11:08:29;11.69;;;6.85;;
69837;SDS011;57135;51.992;4.476;2023-01-15T11:10:57;11.09;;;6.49;;
69837;SDS011;57135;51.992;4.476;2023-01-15T11:14:09;10.73;;;6.37;;
69837;SDS011;57135;51.992;4.476;2023-01-15T11:16:53;9.51;;;5.69;;
69837;SDS011;57135;51.992;4.476;2023-01-15T11:19:37;9.62;;;5.71;;
69837;SDS011;57135;51.992;4.476;2023-01-15T11:24:50;11.04;;;6.48;;
69837;SDS011;57135;51.992;4.476;2023-01-15T11:27:23;9.98;;;5.92;;
69837;SDS011;57135;51.992;4.476;2023-01-15T11:29:56;10.80;;;6.52;;
69837;SDS011;57135;51.992;4.476;2023-01-15T11:32:31;11.06;;;6.68;;
69837;SDS011;57135;51.992;4.476;2023-01-15T11:34:59;10.57;;;6.40;;
69837;SDS011;57135;51.992;4.476;2023-01-15T11:37:45;10.58;;;6.39;;
69837;SDS011;57135;51.992;4.476;2023-01-15T11:40:18;10.91;;;6.70;;
69837;SDS011;57135;51.992;4.476;2023-01-15T11:42:45;9.50;;;5.98;;
69837;SDS011;57135;51.992;4.476;2023-01-15T11:45:30;10.09;;;6.33;;
69837;SDS011;57135;51.992;4.476;2023-01-15T11:48:15;10.90;;;6.74;;
69837;SDS011;57135;51.992;4.476;2023-01-15T11:51:05;11.03;;;6.76;;
69837;SDS011;57135;51.992;4.476;2023-01-15T11:53:38;10.90;;;6.68;;
69837;SDS011;57135;51.992;4.476;2023-01-15T11:56:10;10.74;;;6.46;;
69837;SDS011;57135;51.992;4.476;2023-01-15T11:58:51;10.70;;;6.43;;
69837;SDS011;57135;51.992;4.476;2023-01-15T12:01:20;10.52;;;6.30;;
69837;SDS011;57135;51.992;4.476;2023-01-15T12:03:52;11.03;;;6.64;;
69837;SDS011;57135;51.992;4.476;2023-01-15T12:06:19;9.71;;;5.79;;
69837;SDS011;57135;51.992;4.476;2023-01-15T12:14:05;11.31;;;6.82;;
69837;SDS011;57135;51.992;4.476;2023-01-15T12:19:39;11.00;;;6.62;;
69837;SDS011;57135;51.992;4.476;2023-01-15T12:25:09;11.91;;;7.13;;
69837;SDS011;57135;51.992;4.476;2023-01-15T12:27:56;10.10;;;6.05;;
69837;SDS011;57135;51.992;4.476;2023-01-15T12:30:40;9.75;;;5.80;;
69837;SDS011;57135;51.992;4.476;2023-01-15T12:33:15;7.91;;;4.73;;
69837;SDS011;57135;51.992;4.476;2023-01-15T12:35:52;8.99;;;5.42;;
69837;SDS011;57135;51.992;4.476;2023-01-15T12:38:28;9.19;;;5.52;;
69837;SDS011;57135;51.992;4.476;2023-01-15T12:41:28;8.67;;;5.17;;
69837;SDS011;57135;51.992;4.476;2023-01-15T12:44:13;9.47;;;5.65;;
69837;SDS011;57135;51.992;4.476;2023-01-15T12:47:21;9.24;;;5.52;;
69837;SDS011;57135;51.992;4.476;2023-01-15T12:50:35;10.09;;;5.96;;
69837;SDS011;57135;51.992;4.476;2023-01-15T12:53:16;9.81;;;5.72;;
69837;SDS011;57135;51.992;4.476;2023-01-15T13:01:00;9.18;;;5.43;;
69837;SDS011;57135;51.992;4.476;2023-01-15T13:03:33;10.15;;;6.02;;
69837;SDS011;57135;51.992;4.476;2023-01-15T13:06:07;8.43;;;5.08;;
69837;SDS011;57135;51.992;4.476;2023-01-15T13:08:48;8.91;;;5.32;;
69837;SDS011;57135;51.992;4.476;2023-01-15T13:11:37;9.38;;;5.60;;
69837;SDS011;57135;51.992;4.476;2023-01-15T13:14:03;9.22;;;5.48;;
69837;SDS011;57135;51.992;4.476;2023-01-15T13:16:45;9.94;;;5.86;;
69837;SDS011;57135;51.992;4.476;2023-01-15T13:19:30;9.38;;;5.54;;
69837;SDS011;57135;51.992;4.476;2023-01-15T13:22:07;8.76;;;5.24;;
69837;SDS011;57135;51.992;4.476;2023-01-15T13:24:56;9.26;;;5.53;;
69837;SDS011;57135;51.992;4.476;2023-01-15T13:32:41;9.08;;;5.48;;
69837;SDS011;57135;51.992;4.476;2023-01-15T13:37:43;10.55;;;6.27;;
69837;SDS011;57135;51.992;4.476;2023-01-15T13:42:59;9.96;;;5.97;;
69837;SDS011;57135;51.992;4.476;2023-01-15T13:45:31;11.08;;;6.61;;
69837;SDS011;57135;51.992;4.476;2023-01-15T13:48:02;10.68;;;6.38;;
69837;SDS011;57135;51.992;4.476;2023-01-15T13:50:50;10.69;;;6.46;;
69837;SDS011;57135;51.992;4.476;2023-01-15T13:53:28;11.16;;;6.72;;
69837;SDS011;57135;51.992;4.476;2023-01-15T13:55:59;10.19;;;6.24;;
69837;SDS011;57135;51.992;4.476;2023-01-15T13:58:30;9.53;;;5.84;;
69837;SDS011;57135;51.992;4.476;2023-01-15T14:01:02;10.12;;;6.08;;
69837;SDS011;57135;51.992;4.476;2023-01-15T14:03:41;9.50;;;5.76;;
69837;SDS011;57135;51.992;4.476;2023-01-15T14:09:00;10.34;;;6.10;;
69837;SDS011;57135;51.992;4.476;2023-01-15T14:21:54;9.26;;;5.62;;
69837;SDS011;57135;51.992;4.476;2023-01-15T14:28:08;10.34;;;6.16;;
69837;SDS011;57135;51.992;4.476;2023-01-15T14:30:55;10.08;;;6.03;;
69837;SDS011;57135;51.992;4.476;2023-01-15T14:36:36;11.29;;;6.73;;
69837;SDS011;57135;51.992;4.476;2023-01-15T14:39:06;10.94;;;6.63;;
69837;SDS011;57135;51.992;4.476;2023-01-15T14:50:36;8.87;;;5.45;;
69837;SDS011;57135;51.992;4.476;2023-01-15T15:01:12;9.47;;;5.78;;
69837;SDS011;57135;51.992;4.476;2023-01-15T15:03:50;9.12;;;5.55;;
69837;SDS011;57135;51.992;4.476;2023-01-15T15:06:22;9.74;;;5.91;;
69837;SDS011;57135;51.992;4.476;2023-01-15T15:08:49;9.70;;;5.92;;
69837;SDS011;57135;51.992;4.476;2023-01-15T15:11:23;9.29;;;5.64;;
69837;SDS011;57135;51.992;4.476;2023-01-15T15:14:21;9.00;;;5.50;;
69837;SDS011;57135;51.992;4.476;2023-01-15T15:16:50;9.07;;;5.57;;
69837;SDS011;57135;51.992;4.476;2023-01-15T15:19:33;8.64;;;5.40;;
69837;SDS011;57135;51.992;4.476;2023-01-15T15:22:03;9.42;;;5.85;;
69837;SDS011;57135;51.992;4.476;2023-01-15T15:24:32;10.33;;;6.28;;
69837;SDS011;57135;51.992;4.476;2023-01-15T15:27:20;9.87;;;6.04;;
69837;SDS011;57135;51.992;4.476;2023-01-15T15:29:47;9.64;;;5.84;;
69837;SDS011;57135;51.992;4.476;2023-01-15T15:32:14;10.06;;;6.10;;
69837;SDS011;57135;51.992;4.476;2023-01-15T15:34:42;10.86;;;6.63;;
69837;SDS011;57135;51.992;4.476;2023-01-15T15:37:25;10.96;;;6.82;;
69837;SDS011;57135;51.992;4.476;2023-01-15T15:39:54;11.67;;;7.21;;
69837;SDS011;57135;51.992;4.476;2023-01-15T15:45:16;12.57;;;8.00;;
69837;SDS011;57135;51.992;4.476;2023-01-15T15:48:11;9.62;;;6.23;;
69837;SDS011;57135;51.992;4.476;2023-01-15T15:50:57;10.81;;;6.81;;
69837;SDS011;57135;51.992;4.476;2023-01-15T15:53:23;10.31;;;6.38;;
69837;SDS011;57135;51.992;4.476;2023-01-15T15:55:48;8.92;;;5.59;;
69837;SDS011;57135;51.992;4.476;2023-01-15T15:58:31;9.73;;;6.03;;
69837;SDS011;57135;51.992;4.476;2023-01-15T16:01:00;9.85;;;6.09;;
69837;SDS011;57135;51.992;4.476;2023-01-15T16:03:28;10.01;;;6.35;;
69837;SDS011;57135;51.992;4.476;2023-01-15T16:05:56;8.26;;;5.41;;
69837;SDS011;57135;51.992;4.476;2023-01-15T16:08:22;7.71;;;5.22;;
69837;SDS011;57135;51.992;4.476;2023-01-15T16:10:54;7.12;;;4.95;;
69837;SDS011;57135;51.992;4.476;2023-01-15T16:13:28;7.07;;;5.01;;
69837;SDS011;57135;51.992;4.476;2023-01-15T16:15:57;7.49;;;5.58;;
69837;SDS011;57135;51.992;4.476;2023-01-15T16:18:33;6.54;;;5.26;;
69837;SDS011;57135;51.992;4.476;2023-01-15T16:21:08;5.56;;;4.66;;
69837;SDS011;57135;51.992;4.476;2023-01-15T16:23:40;4.93;;;4.12;;
69837;SDS011;57135;51.992;4.476;2023-01-15T16:26:18;4.79;;;3.90;;
69837;SDS011;57135;51.992;4.476;2023-01-15T16:28:55;5.60;;;4.36;;
69837;SDS011;57135;51.992;4.476;2023-01-15T16:31:23;6.25;;;4.73;;
69837;SDS011;57135;51.992;4.476;2023-01-15T16:33:56;6.34;;;4.79;;
69837;SDS011;57135;51.992;4.476;2023-01-15T16:36:23;6.49;;;4.74;;
69837;SDS011;57135;51.992;4.476;2023-01-15T16:38:51;6.19;;;4.55;;
69837;SDS011;57135;51.992;4.476;2023-01-15T16:41:19;6.04;;;4.45;;
69837;SDS011;57135;51.992;4.476;2023-01-15T16:43:55;6.11;;;4.60;;
69837;SDS011;57135;51.992;4.476;2023-01-15T16:46:23;5.26;;;4.03;;
69837;SDS011;57135;51.992;4.476;2023-01-15T16:51:46;5.48;;;4.07;;
69837;SDS011;57135;51.992;4.476;2023-01-15T16:54:38;6.16;;;4.62;;
69837;SDS011;57135;51.992;4.476;2023-01-15T16:57:10;5.93;;;4.37;;
69837;SDS011;57135;51.992;4.476;2023-01-15T16:59:55;5.75;;;4.15;;
69837;SDS011;57135;51.992;4.476;2023-01-15T17:02:22;5.73;;;4.19;;
69837;SDS011;57135;51.992;4.476;2023-01-15T17:04:48;6.49;;;4.63;;
69837;SDS011;57135;51.992;4.476;2023-01-15T17:07:17;6.04;;;4.48;;
69837;SDS011;57135;51.992;4.476;2023-01-15T17:09:50;5.87;;;4.56;;